Aérodrome :
LOGIN :

S'inscrire | Disclaimer

   EN    FR    IT 

 










Légende :    VFR   VFR Marginal   IFR   IFR Intensif   IFR Très Intensif
Visi : 
Plafond : 
>= 8 km
>= 3000ft
5 à 8 km
1000 à 3000 ft
1500m à 5 km
500 à 1000 ft
800 à 1500m
200 à 500 ft
< 800m
< 200 ft
Symboles :   Orages  Brouillard  Fortes neiges  Fortes précipitations  Vent > 20 kt
SIGMETs :   Divers  Orages  Givrage  Turbulence  Onde Orograph.  Cendres Volcan.






- Altitude de l'aérodrome : 1260 ft
- Code IATA : LDE


LFBT - Tarbes / Ossun

DERNIER METAR :
  • 231830Z AUTO 24005KT 190V260 6000 -RA FEW018 OVC030 12/11 Q1021 NOSIG

METARs EXPIRÉS :
  • 231800Z AUTO 27005KT 240V300 9000 -RA SCT016 BKN025 OVC034 12/11 Q1020 NOSIG
  • 231730Z AUTO 30004KT 260V350 9999 FEW018 BKN028 OVC036 13/10 Q1020 NOSIG
  • 231700Z AUTO 27007KT 9999 FEW030 OVC039 14/10 Q1020 NOSIG
  • 231630Z AUTO 25007KT 9999 FEW030 OVC037 14/09 Q1020 NOSIG
  • 231600Z AUTO 26006KT 9999 OVC039 14/10 Q1020 NOSIG
  • 231530Z AUTO 27008KT 9999 OVC042 14/10 Q1020 NOSIG
  • 231500Z AUTO 28006KT 250V310 9999 FEW024 OVC043 15/10 Q1020 TEMPO SCT025TCU BKN050
  • 231430Z AUTO 28008KT 180V300 9999 OVC046 15/09 Q1020 TEMPO SCT025TCU BKN050
  • 231400Z AUTO 30010KT 9999 FEW032 BKN044 OVC056 16/10 Q1020 BECMG SCT025TCU BKN050

TAF TAF LFBT
Valide du 23 à 18h jusqu'au 24 à 18h UTC


231700Z 2318/2418 27006KT 9999 OVC035
TEMPO 2404/2408 BKN006 BKN030 FEW060CB OVC080



MET'MAP, la Météo Aéronautique d'un coup d'oeil ! - Copyright ORBIFLY Décembre 2007 - Disclaimer

ORBIFLY MET'MAP TEAM :

Programmation & Développement : Alexandra Zaïnal
Sur une idée originale de : Baudouin d'Aumeries
Soutien technique & logistique : Manuel Goepfert
Assistance : Marc-Olivier Méhu




SOURCES & CREDITS :

   NOAA